Airport View

Enter AWOS ICAO identifier for current METAR.

ex. KFNL

KSET 080254Z AUTO 02003KT 7SM CLR 27/24 A2992 RMK AO2 SLP126 T02720239 53007

8 Jul 2020 03:55

Frequency: 118.075

Phone: 636-250-4590

Other Area AWOS: KSTL - KALN - KSUS - KCPS

KSTL 080257Z 0803/0906 VRB04KT P6SM FEW060 FM081800 14006KT P6SM SCT050